Time;durP1;ratioP1;P1;durP2;ratioP2;P2;SDS_P1;SDS_P2;PMS_P1;PMS_P2;Temp;Humidity;BMP_temperature;BMP_pressure;BME280_temperature;BME280_humidity;BME280_pressure;Samples;Min_cycle;Max_cycle;Signal;HPM_P1;HPM_P2
2022/01/03 00:00:16;;;;;;;4.13;2.63;;;23.90;39.80;;;;;;5007308;28;20042;-46
2022/01/03 00:02:43;;;;;;;4.25;2.78;;;23.80;39.70;;;;;;5006871;28;20100;-45
2022/01/03 00:05:10;;;;;;;3.83;2.55;;;23.90;39.80;;;;;;5007468;28;20088;-45
2022/01/03 00:07:43;;;;;;;3.70;2.35;;;23.80;39.70;;;;;;5007158;28;20112;-45
2022/01/03 00:10:10;;;;;;;3.70;2.25;;;23.80;39.80;;;;;;5006562;28;20042;-45
2022/01/03 00:12:37;;;;;;;3.55;2.10;;;23.80;39.70;;;;;;5007049;28;20080;-46
2022/01/03 00:15:05;;;;;;;4.22;2.70;;;23.80;39.60;;;;;;5006827;28;20029;-45
2022/01/03 00:17:30;;;;;;;3.78;2.17;;;23.80;39.60;;;;;;5007000;28;20054;-45
2022/01/03 00:19:57;;;;;;;4.50;2.30;;;23.80;39.70;;;;;;5006736;28;20058;-45
2022/01/03 00:22:24;;;;;;;4.00;2.70;;;23.80;39.70;;;;;;5006172;28;20036;-45
2022/01/03 00:25:01;;;;;;;4.05;2.42;;;23.80;39.70;;;;;;5006487;28;20034;-46
2022/01/03 00:27:39;;;;;;;3.70;2.08;;;23.80;39.70;;;;;;5006278;28;20037;-46
2022/01/03 00:30:05;;;;;;;4.82;3.20;;;23.80;39.60;;;;;;5005208;28;20554;-46
2022/01/03 00:32:33;;;;;;;3.53;2.10;;;23.80;39.70;;;;;;5005774;28;20133;-45
2022/01/03 00:35:00;;;;;;;4.60;2.80;;;23.80;39.70;;;;;;5006101;28;20561;-46
2022/01/03 00:37:27;;;;;;;3.28;2.22;;;23.80;39.70;;;;;;5006675;28;20026;-46
2022/01/03 00:39:54;;;;;;;3.63;2.13;;;23.80;39.70;;;;;;5006255;28;20114;-46
2022/01/03 00:42:21;;;;;;;3.38;2.08;;;23.80;39.70;;;;;;5006683;28;20113;-45
2022/01/03 00:44:48;;;;;;;3.15;1.92;;;23.80;39.60;;;;;;5008918;28;20112;-46
2022/01/03 00:47:15;;;;;;;3.30;2.00;;;23.80;39.60;;;;;;5026237;28;20034;-45
2022/01/03 00:49:41;;;;;;;3.97;2.50;;;23.80;39.70;;;;;;5029089;28;20059;-46
2022/01/03 00:52:06;;;;;;;3.65;2.05;;;23.80;39.60;;;;;;5046381;28;20051;-45
2022/01/03 00:54:32;;;;;;;4.75;2.50;;;23.70;39.60;;;;;;5018394;28;20518;-46
2022/01/03 00:57:04;;;;;;;3.88;2.28;;;23.70;39.60;;;;;;5006278;28;20061;-45
2022/01/03 00:59:42;;;;;;;3.20;1.80;;;23.70;39.70;;;;;;5005988;28;20553;-45
2022/01/03 01:02:11;;;;;;;3.83;2.70;;;23.70;39.70;;;;;;5006247;28;20026;-46
2022/01/03 01:04:38;;;;;;;3.30;2.10;;;23.70;39.70;;;;;;5006238;28;20033;-46
2022/01/03 01:07:05;;;;;;;3.70;2.20;;;23.70;39.70;;;;;;5005744;28;20025;-46
2022/01/03 01:09:34;;;;;;;5.35;1.90;;;23.70;39.70;;;;;;5005706;28;20029;-46
2022/01/03 01:12:00;;;;;;;3.20;2.00;;;23.70;39.70;;;;;;5004720;28;20576;-45
2022/01/03 01:14:27;;;;;;;4.00;2.10;;;23.70;39.70;;;;;;5005815;28;20041;-45
2022/01/03 01:16:54;;;;;;;3.17;1.98;;;23.70;39.60;;;;;;5005261;28;20621;-45
2022/01/03 01:19:21;;;;;;;3.30;2.10;;;23.70;40.40;;;;;;5005806;28;20025;-45
2022/01/03 01:21:51;;;;;;;3.00;1.92;;;23.70;39.70;;;;;;5006197;28;20033;-45
2022/01/03 01:24:20;;;;;;;3.53;2.10;;;23.70;39.70;;;;;;5005167;28;20068;-47
2022/01/03 01:29:30;;;;;;;3.15;1.90;;;23.70;39.70;;;;;;5006100;28;20029;-46
2022/01/03 01:32:01;;;;;;;3.50;2.03;;;23.60;39.60;;;;;;5006261;28;20030;-45
2022/01/03 01:34:29;;;;;;;2.88;1.75;;;23.60;39.70;;;;;;5005528;28;20033;-45
2022/01/03 01:36:58;;;;;;;2.83;1.70;;;23.60;39.60;;;;;;5005860;28;20028;-45
2022/01/03 01:39:28;;;;;;;2.92;1.65;;;23.60;39.70;;;;;;5004143;28;20093;-45
2022/01/03 01:41:56;;;;;;;3.00;1.80;;;23.60;39.60;;;;;;5005328;28;20034;-45
2022/01/03 01:44:23;;;;;;;3.65;2.25;;;23.60;39.60;;;;;;5003364;28;20057;-45
2022/01/03 01:46:55;;;;;;;2.65;1.60;;;23.60;39.60;;;;;;5017807;28;20037;-45
2022/01/03 01:49:25;;;;;;;3.25;1.88;;;23.60;39.70;;;;;;5024020;28;20045;-45
2022/01/03 01:52:00;;;;;;;3.45;2.10;;;23.60;39.70;;;;;;5044397;28;20083;-46
2022/01/03 01:54:37;;;;;;;3.58;2.00;;;23.60;39.70;;;;;;5021242;28;20030;-45
2022/01/03 01:57:05;;;;;;;2.78;1.60;;;23.60;39.70;;;;;;5005101;28;20135;-45
2022/01/03 01:59:44;;;;;;;2.85;1.77;;;23.60;39.70;;;;;;5004815;28;20061;-46
2022/01/03 02:02:14;;;;;;;4.10;1.75;;;23.60;39.70;;;;;;5004238;28;20034;-45
2022/01/03 02:04:46;;;;;;;3.03;1.60;;;23.50;39.70;;;;;;5004347;28;20029;-46
2022/01/03 02:07:26;;;;;;;2.80;1.73;;;23.50;39.70;;;;;;5005719;28;20049;-46
2022/01/03 02:10:12;;;;;;;3.58;2.00;;;23.50;39.70;;;;;;5004809;28;20053;-46
2022/01/03 02:12:42;;;;;;;3.50;1.80;;;23.50;39.70;;;;;;5004962;28;20582;-45
2022/01/03 02:15:13;;;;;;;2.83;1.52;;;23.50;39.70;;;;;;5005208;28;20084;-45
2022/01/03 02:17:40;;;;;;;2.67;1.58;;;23.50;39.70;;;;;;5004197;28;20030;-45
2022/01/03 02:20:08;;;;;;;3.72;1.80;;;23.50;39.70;;;;;;5007547;28;20440;-46
2022/01/03 02:22:37;;;;;;;3.15;1.73;;;23.50;39.70;;;;;;5012023;28;20041;-45
2022/01/03 02:25:03;;;;;;;2.72;1.75;;;23.50;39.80;;;;;;5018015;28;20026;-45
2022/01/03 02:27:31;;;;;;;3.08;1.63;;;23.50;39.70;;;;;;5023953;28;20057;-45
2022/01/03 02:29:57;;;;;;;2.80;1.63;;;23.50;39.80;;;;;;5024116;28;20021;-45
2022/01/03 02:32:22;;;;;;;3.90;1.83;;;23.50;39.70;;;;;;5005721;28;20036;-44
2022/01/03 02:34:48;;;;;;;2.85;1.58;;;23.50;39.70;;;;;;5003778;28;20065;-45
2022/01/03 02:37:14;;;;;;;2.95;1.70;;;23.50;39.70;;;;;;5004648;28;20057;-45
2022/01/03 02:39:41;;;;;;;3.17;1.90;;;23.50;39.60;;;;;;5003770;28;20459;-45
2022/01/03 02:42:07;;;;;;;2.90;1.60;;;23.50;39.70;;;;;;5004676;28;20061;-46
2022/01/03 02:44:32;;;;;;;3.05;1.65;;;23.50;39.60;;;;;;5004238;28;20080;-46
2022/01/03 02:46:58;;;;;;;3.15;1.70;;;23.50;39.70;;;;;;5005124;28;20030;-45
2022/01/03 02:49:24;;;;;;;2.70;1.45;;;23.50;39.70;;;;;;5003326;28;20029;-46
2022/01/03 02:51:49;;;;;;;3.22;1.70;;;23.50;39.70;;;;;;5043760;28;20029;-45
2022/01/03 02:54:15;;;;;;;3.15;1.75;;;23.40;39.60;;;;;;5024653;28;20046;-46
2022/01/03 02:56:42;;;;;;;2.88;1.60;;;23.40;39.60;;;;;;5005936;28;20029;-47
2022/01/03 02:59:15;;;;;;;2.60;1.40;;;23.40;39.60;;;;;;5006474;28;20018;-45
2022/01/03 03:01:45;;;;;;;2.95;1.58;;;23.40;39.60;;;;;;5013736;28;20088;-45
2022/01/03 03:04:12;;;;;;;2.78;1.50;;;23.40;39.60;;;;;;5005848;28;20486;-45
2022/01/03 03:06:38;;;;;;;2.55;1.40;;;23.40;39.60;;;;;;5023105;28;20082;-45
2022/01/03 03:09:05;;;;;;;2.58;1.38;;;23.40;39.50;;;;;;5015490;28;20502;-46
2022/01/03 03:11:35;;;;;;;2.95;1.50;;;23.40;39.50;;;;;;5002845;28;20526;-45
2022/01/03 03:14:02;;;;;;;2.35;1.25;;;23.40;39.50;;;;;;5002914;28;20026;-45
2022/01/03 03:16:28;;;;;;;2.88;1.40;;;23.40;39.50;;;;;;5003034;28;20018;-45
2022/01/03 03:18:54;;;;;;;3.38;1.50;;;23.40;40.20;;;;;;5001797;28;20081;-45
2022/01/03 03:21:20;;;;;;;2.60;1.45;;;23.40;39.60;;;;;;5002264;28;20030;-46
2022/01/03 03:23:46;;;;;;;3.33;1.50;;;23.40;39.50;;;;;;5003015;28;20108;-45
2022/01/03 03:26:12;;;;;;;2.45;1.30;;;23.40;39.60;;;;;;5006963;28;20453;-45
2022/01/03 03:28:38;;;;;;;2.38;1.48;;;23.40;39.50;;;;;;5023622;28;20559;-45
2022/01/03 03:31:04;;;;;;;2.40;1.25;;;23.40;39.50;;;;;;5017348;28;20126;-45
2022/01/03 03:33:32;;;;;;;2.90;1.60;;;23.40;39.60;;;;;;5010624;28;20040;-46
2022/01/03 03:35:59;;;;;;;2.42;1.30;;;23.40;39.50;;;;;;5021065;28;20030;-45
2022/01/03 03:38:26;;;;;;;2.70;1.30;;;23.30;39.50;;;;;;5022349;28;20052;-46
2022/01/03 03:40:56;;;;;;;3.50;1.60;;;23.30;39.50;;;;;;5003827;28;20061;-46
2022/01/03 03:43:22;;;;;;;2.72;1.38;;;23.40;39.50;;;;;;5004086;28;20030;-45
2022/01/03 03:45:49;;;;;;;2.45;1.20;;;23.30;39.50;;;;;;5003919;28;20156;-45
2022/01/03 03:48:15;;;;;;;2.28;1.20;;;23.30;39.50;;;;;;5003129;28;20026;-46
2022/01/03 03:50:41;;;;;;;2.55;1.25;;;23.30;39.50;;;;;;5025406;28;20489;-45
2022/01/03 03:53:08;;;;;;;2.85;1.42;;;23.30;39.60;;;;;;5042221;28;20021;-45
2022/01/03 03:55:34;;;;;;;2.17;1.17;;;23.30;39.60;;;;;;5006239;28;20508;-45
2022/01/03 03:58:00;;;;;;;2.20;1.20;;;23.30;39.60;;;;;;5003175;28;20037;-45
2022/01/03 04:00:27;;;;;;;2.65;1.45;;;23.30;39.60;;;;;;5003348;28;20509;-45
2022/01/03 04:02:53;;;;;;;2.92;1.42;;;23.30;39.60;;;;;;5002702;28;20146;-45
2022/01/03 04:05:19;;;;;;;3.22;1.25;;;23.30;39.60;;;;;;5003152;28;20322;-46
2022/01/03 04:07:45;;;;;;;2.55;1.25;;;23.30;39.70;;;;;;5003813;28;20099;-45
2022/01/03 04:10:15;;;;;;;2.15;1.20;;;23.30;39.60;;;;;;5003538;28;20616;-45
2022/01/03 04:12:42;;;;;;;2.70;1.30;;;23.30;39.60;;;;;;5003948;28;20061;-46
2022/01/03 04:15:08;;;;;;;2.42;1.30;;;23.30;39.60;;;;;;5002341;28;20570;-45
2022/01/03 04:17:34;;;;;;;2.20;1.23;;;23.30;39.60;;;;;;5003039;28;20080;-45
2022/01/03 04:20:00;;;;;;;2.78;1.65;;;23.30;40.40;;;;;;5003928;28;20025;-45
2022/01/03 04:22:26;;;;;;;2.03;1.10;;;23.20;39.50;;;;;;5007453;28;20477;-45
2022/01/03 04:24:52;;;;;;;2.38;1.17;;;23.30;39.70;;;;;;5005041;28;20037;-45
2022/01/03 04:27:18;;;;;;;2.13;1.13;;;23.30;39.70;;;;;;5008213;28;20084;-45
2022/01/03 04:29:43;;;;;;;2.00;1.15;;;23.20;39.60;;;;;;5005963;28;20041;-46
2022/01/03 04:32:09;;;;;;;2.47;1.40;;;23.30;39.70;;;;;;5007992;28;20034;-45
2022/01/03 04:34:35;;;;;;;2.63;1.40;;;23.30;39.70;;;;;;5016695;28;20626;-45
2022/01/03 04:37:01;;;;;;;2.65;1.23;;;23.20;39.70;;;;;;5025143;28;20032;-44
2022/01/03 04:39:26;;;;;;;2.60;1.30;;;23.20;39.60;;;;;;5023941;28;20520;-45
2022/01/03 04:41:52;;;;;;;2.30;1.13;;;23.20;39.60;;;;;;5025982;28;20108;-47
2022/01/03 04:44:18;;;;;;;2.50;1.38;;;23.20;39.90;;;;;;5024517;28;20091;-49
2022/01/03 04:46:44;;;;;;;3.55;1.67;;;23.20;40.40;;;;;;5025132;28;20612;-45
2022/01/03 04:49:10;;;;;;;3.35;1.50;;;23.20;40.90;;;;;;5024011;28;20025;-46
2022/01/03 04:51:35;;;;;;;2.75;1.48;;;23.20;41.10;;;;;;5025996;28;20489;-45
2022/01/03 04:54:02;;;;;;;3.13;1.40;;;23.20;40.80;;;;;;5022587;28;20029;-45
2022/01/03 04:56:28;;;;;;;2.10;1.30;;;23.20;41.00;;;;;;5020299;28;20060;-48
2022/01/03 04:58:56;;;;;;;3.83;1.40;;;23.20;40.80;;;;;;5024460;28;20049;-48
2022/01/03 05:01:23;;;;;;;3.45;1.60;;;23.20;40.80;;;;;;5023355;28;20123;-48
2022/01/03 05:03:49;;;;;;;2.95;1.67;;;23.20;40.50;;;;;;5023510;28;20026;-45
2022/01/03 05:06:16;;;;;;;2.40;1.17;;;23.20;40.40;;;;;;5024026;28;20033;-45
2022/01/03 05:08:42;;;;;;;3.22;1.58;;;23.30;40.40;;;;;;5023875;28;20685;-46
2022/01/03 05:11:08;;;;;;;3.35;1.52;;;23.20;40.30;;;;;;5005749;28;20152;-45
2022/01/03 05:13:34;;;;;;;4.93;1.65;;;23.30;40.30;;;;;;5006414;28;20113;-45
2022/01/03 05:16:00;;;;;;;3.60;1.60;;;23.30;40.20;;;;;;5016552;28;20037;-45
2022/01/03 05:18:26;;;;;;;2.45;1.27;;;23.20;40.10;;;;;;5023583;28;20651;-45
2022/01/03 05:20:53;;;;;;;4.30;1.50;;;23.30;40.20;;;;;;5024654;28;20052;-46
2022/01/03 05:23:19;;;;;;;3.38;1.70;;;23.30;40.30;;;;;;5024166;28;20100;-45
2022/01/03 05:25:45;;;;;;;4.82;1.60;;;23.30;40.30;;;;;;5006184;28;20026;-45
2022/01/03 05:28:11;;;;;;;2.92;1.63;;;23.20;40.20;;;;;;5013087;28;20037;-45
2022/01/03 05:30:37;;;;;;;3.30;1.30;;;23.30;40.30;;;;;;5023452;28;20452;-46
2022/01/03 05:33:03;;;;;;;2.53;1.20;;;23.30;40.30;;;;;;5005728;28;20052;-45
2022/01/03 05:35:29;;;;;;;2.17;1.08;;;23.30;40.30;;;;;;5005600;28;20715;-45
2022/01/03 05:37:56;;;;;;;3.20;1.15;;;23.40;40.30;;;;;;5006630;28;20030;-45
2022/01/03 05:40:23;;;;;;;7.97;1.40;;;23.40;40.70;;;;;;5005940;28;20026;-46
2022/01/03 05:42:49;;;;;;;2.30;1.10;;;23.50;40.40;;;;;;5005952;28;20037;-46
2022/01/03 05:45:15;;;;;;;3.17;1.38;;;23.50;40.40;;;;;;5005974;28;20041;-46
2022/01/03 05:47:44;;;;;;;2.78;1.17;;;23.60;40.30;;;;;;5005577;28;20025;-45
2022/01/03 05:50:11;;;;;;;2.70;1.40;;;23.60;40.20;;;;;;5020132;28;20070;-46
2022/01/03 05:52:36;;;;;;;1.88;0.90;;;23.70;40.20;;;;;;5046039;28;20513;-46
2022/01/03 05:55:03;;;;;;;1.92;0.90;;;23.70;40.10;;;;;;5021888;28;20040;-46
2022/01/03 05:57:28;;;;;;;4.18;1.83;;;23.80;40.70;;;;;;5006198;28;20064;-45
2022/01/03 05:59:54;;;;;;;3.72;1.50;;;23.80;39.90;;;;;;5005864;28;20045;-46
2022/01/03 06:02:20;;;;;;;3.72;1.17;;;23.90;39.90;;;;;;5005395;28;20141;-46
2022/01/03 06:07:17;;;;;;;2.78;0.90;;;24.00;39.70;;;;;;5006147;28;20037;-46
2022/01/03 06:09:43;;;;;;;2.38;1.05;;;24.10;39.60;;;;;;5005603;28;20485;-46
2022/01/03 06:12:09;;;;;;;3.50;1.17;;;24.10;39.50;;;;;;5006022;28;20022;-46
2022/01/03 06:14:35;;;;;;;2.42;1.10;;;24.20;39.40;;;;;;5005461;28;20038;-45
2022/01/03 06:17:03;;;;;;;2.90;1.30;;;24.20;39.30;;;;;;4987864;28;20064;-46
2022/01/03 06:19:29;;;;;;;2.42;1.00;;;24.30;39.20;;;;;;5005235;28;20073;-46
2022/01/03 06:21:56;;;;;;;1.83;1.00;;;24.30;39.20;;;;;;5005787;28;20034;-46
2022/01/03 06:24:22;;;;;;;2.70;1.15;;;24.40;39.10;;;;;;5005212;28;20029;-45
2022/01/03 06:26:48;;;;;;;2.95;1.23;;;24.40;38.90;;;;;;5005111;28;20088;-46
2022/01/03 06:29:15;;;;;;;1.77;0.82;;;24.40;38.90;;;;;;5005307;28;20475;-45
2022/01/03 06:31:41;;;;;;;2.60;1.20;;;24.50;38.80;;;;;;5005244;28;20787;-46
2022/01/03 06:34:08;;;;;;;1.67;0.80;;;24.50;38.80;;;;;;5004712;28;20033;-45
2022/01/03 06:36:33;;;;;;;2.05;1.05;;;24.60;38.70;;;;;;5004692;28;20045;-45
2022/01/03 06:38:59;;;;;;;2.17;0.88;;;24.60;38.60;;;;;;5004399;28;20034;-46
2022/01/03 06:41:26;;;;;;;1.83;0.90;;;24.60;38.50;;;;;;5005662;28;20049;-45
2022/01/03 06:43:52;;;;;;;2.20;1.10;;;24.70;38.50;;;;;;5003512;28;20121;-45
2022/01/03 06:46:18;;;;;;;2.20;0.90;;;24.70;38.50;;;;;;5005002;28;20032;-45
2022/01/03 06:48:46;;;;;;;2.50;1.10;;;24.70;38.40;;;;;;5004277;28;20026;-46
2022/01/03 06:51:12;;;;;;;2.72;1.00;;;24.80;38.30;;;;;;5035529;28;20099;-46
2022/01/03 06:53:38;;;;;;;1.85;1.00;;;24.80;38.30;;;;;;5044720;28;20136;-45
2022/01/03 06:56:04;;;;;;;2.42;0.90;;;24.90;38.30;;;;;;5005534;28;20034;-45
2022/01/03 06:58:31;;;;;;;1.70;0.95;;;24.90;38.30;;;;;;5004579;28;20037;-45
2022/01/03 07:00:57;;;;;;;2.42;0.95;;;24.90;38.20;;;;;;5004481;28;20037;-46
2022/01/03 07:03:23;;;;;;;2.00;1.02;;;24.90;38.20;;;;;;5004626;28;20026;-45
2022/01/03 07:05:49;;;;;;;2.38;1.00;;;24.90;38.20;;;;;;5004363;28;20114;-46
2022/01/03 07:08:15;;;;;;;2.72;1.00;;;25.00;38.00;;;;;;5004547;28;20075;-46
2022/01/03 07:10:41;;;;;;;3.95;1.00;;;25.00;38.00;;;;;;5004482;28;20729;-46
2022/01/03 07:13:06;;;;;;;2.15;0.90;;;25.00;38.00;;;;;;5003830;28;20685;-45
2022/01/03 07:19:17;;;;;;;1.70;0.70;;;25.00;38.00;;;;;;5004168;28;20065;-46
2022/01/03 07:21:12;;;;;;;2.38;0.70;;;25.00;37.80;;;;;;4999550;28;20134;-46
2022/01/03 07:23:39;;;;;;;2.03;0.77;;;25.10;37.80;;;;;;5002751;28;20108;-46
2022/01/03 07:26:05;;;;;;;2.42;1.02;;;25.10;37.80;;;;;;5013813;28;20047;-49
2022/01/03 07:28:31;;;;;;;1.75;0.80;;;25.10;37.90;;;;;;5020690;28;20584;-45
2022/01/03 07:30:57;;;;;;;2.10;0.88;;;25.10;37.90;;;;;;5020594;28;20654;-46
2022/01/03 07:33:23;;;;;;;2.03;0.82;;;25.10;37.80;;;;;;5011568;28;20064;-45
2022/01/03 07:35:48;;;;;;;2.80;1.10;;;25.10;37.80;;;;;;5008739;28;20030;-46
2022/01/03 07:38:14;;;;;;;3.45;1.10;;;25.10;37.60;;;;;;5003458;28;20049;-45
2022/01/03 07:40:40;;;;;;;2.90;1.10;;;25.10;37.60;;;;;;5002629;28;20030;-45
2022/01/03 07:43:06;;;;;;;4.55;1.13;;;25.10;37.60;;;;;;5004257;28;20662;-45
2022/01/03 07:45:32;;;;;;;3.40;1.00;;;25.10;37.60;;;;;;5003166;28;20065;-45
2022/01/03 07:47:58;;;;;;;3.85;0.82;;;25.10;37.60;;;;;;5004400;28;20063;-45
2022/01/03 07:50:23;;;;;;;2.70;0.82;;;25.10;37.60;;;;;;5020928;28;20043;-45
2022/01/03 07:52:49;;;;;;;4.00;1.00;;;25.10;37.60;;;;;;5038707;28;20686;-46
2022/01/03 07:55:15;;;;;;;3.85;1.10;;;25.20;37.60;;;;;;5026094;28;20030;-46
2022/01/03 07:57:42;;;;;;;2.28;1.02;;;25.20;37.60;;;;;;5027568;28;20036;-46
2022/01/03 08:00:10;;;;;;;4.20;1.50;;;25.20;37.70;;;;;;5027718;28;20022;-44
2022/01/03 08:02:38;;;;;;;2.42;0.95;;;25.10;37.80;;;;;;5021635;28;20650;-45
2022/01/03 08:05:05;;;;;;;2.55;1.00;;;25.20;37.80;;;;;;5014124;28;20038;-45
2022/01/03 08:07:31;;;;;;;3.95;1.00;;;25.20;37.80;;;;;;5006817;28;20030;-46
2022/01/03 08:09:57;;;;;;;5.13;1.55;;;25.20;37.80;;;;;;5007320;28;20083;-45
2022/01/03 08:12:22;;;;;;;3.10;1.05;;;25.20;37.80;;;;;;5007117;28;20135;-45
2022/01/03 08:14:48;;;;;;;4.18;1.45;;;25.20;37.80;;;;;;5005790;28;20144;-45
2022/01/03 08:17:14;;;;;;;3.30;1.27;;;25.20;37.80;;;;;;5007087;28;20022;-46
2022/01/03 08:19:39;;;;;;;3.42;1.13;;;25.30;37.90;;;;;;5012165;28;20034;-46
2022/01/03 08:22:05;;;;;;;4.32;1.05;;;25.20;37.70;;;;;;5009803;28;20034;-45
2022/01/03 08:24:31;;;;;;;3.90;1.67;;;25.30;37.70;;;;;;5014498;28;20045;-46
2022/01/03 08:26:56;;;;;;;6.72;1.80;;;25.30;37.60;;;;;;5007351;28;20034;-45
2022/01/03 08:29:23;;;;;;;3.45;1.25;;;25.30;37.70;;;;;;5006757;28;20391;-45
2022/01/03 08:31:49;;;;;;;4.10;1.42;;;25.30;37.70;;;;;;5006345;28;20044;-45
2022/01/03 08:34:15;;;;;;;3.17;1.13;;;25.20;37.60;;;;;;5006445;28;20482;-45
2022/01/03 08:36:41;;;;;;;4.35;1.50;;;25.20;37.70;;;;;;5006257;28;20594;-45
2022/01/03 08:39:09;;;;;;;3.60;1.33;;;25.20;37.70;;;;;;5005617;28;20029;-46
2022/01/03 08:41:35;;;;;;;3.55;1.20;;;25.20;37.70;;;;;;5006666;28;20143;-45
2022/01/03 08:44:01;;;;;;;4.13;1.33;;;25.20;37.70;;;;;;5007051;28;20068;-45
2022/01/03 08:46:26;;;;;;;2.80;1.00;;;25.20;37.70;;;;;;5006342;28;20061;-45
2022/01/03 08:48:54;;;;;;;3.38;1.30;;;25.20;37.60;;;;;;5007327;28;20029;-45
2022/01/03 08:51:20;;;;;;;4.03;1.10;;;25.20;37.60;;;;;;5039801;28;20039;-46
2022/01/03 08:53:46;;;;;;;4.78;0.93;;;25.20;37.50;;;;;;5046272;28;20021;-45
2022/01/03 08:56:12;;;;;;;3.20;0.95;;;25.20;37.60;;;;;;5008767;28;20096;-45
2022/01/03 08:58:38;;;;;;;3.33;1.02;;;25.20;37.60;;;;;;5006617;28;20482;-46
2022/01/03 09:01:04;;;;;;;3.65;0.85;;;25.20;37.60;;;;;;5007297;28;20045;-45
2022/01/03 09:03:30;;;;;;;6.63;1.27;;;25.20;37.60;;;;;;5005994;28;20025;-45
2022/01/03 09:05:57;;;;;;;3.15;1.23;;;25.20;37.50;;;;;;5006518;28;20275;-45
2022/01/03 09:08:24;;;;;;;3.67;1.20;;;25.20;37.60;;;;;;5006319;28;20733;-45
2022/01/03 09:10:50;;;;;;;5.13;1.05;;;25.30;37.50;;;;;;5006909;28;20033;-45
2022/01/03 09:13:17;;;;;;;3.95;1.40;;;25.20;37.50;;;;;;5005941;28;20484;-45
2022/01/03 09:15:46;;;;;;;3.85;1.05;;;25.20;37.50;;;;;;5006219;28;20038;-45
2022/01/03 09:18:13;;;;;;;3.33;1.40;;;25.20;37.50;;;;;;5006604;28;20040;-46
2022/01/03 09:20:39;;;;;;;2.70;0.98;;;25.20;37.60;;;;;;5006058;28;20080;-45
2022/01/03 09:23:18;;;;;;;4.80;1.30;;;25.20;37.60;;;;;;5006210;28;20038;-45
2022/01/03 09:31:13;;;;;;;4.00;1.23;;;25.20;37.60;;;;;;5005201;28;20061;-45
2022/01/03 09:33:39;;;;;;;3.05;0.73;;;25.20;37.60;;;;;;5005624;28;20026;-45
2022/01/03 09:36:05;;;;;;;3.05;0.98;;;25.20;37.60;;;;;;5006370;28;20029;-45
2022/01/03 09:38:30;;;;;;;2.30;0.77;;;25.20;37.60;;;;;;5005620;28;20052;-46
2022/01/03 09:41:02;;;;;;;2.45;1.10;;;25.20;37.60;;;;;;5005899;28;20330;-45
2022/01/03 09:43:28;;;;;;;3.25;1.17;;;25.20;37.60;;;;;;5005507;28;20041;-45
2022/01/03 09:45:55;;;;;;;3.03;0.90;;;25.20;37.60;;;;;;5003829;28;20029;-45
2022/01/03 09:48:23;;;;;;;2.88;1.00;;;25.20;37.60;;;;;;5005369;28;20030;-45
2022/01/03 09:50:50;;;;;;;3.35;1.02;;;25.20;37.50;;;;;;5029664;28;20043;-45
2022/01/03 09:53:19;;;;;;;2.08;0.80;;;25.20;37.60;;;;;;5044163;28;20041;-45
2022/01/03 09:55:45;;;;;;;2.45;1.10;;;25.20;37.50;;;;;;5018652;28;20483;-45
2022/01/03 09:58:13;;;;;;;1.80;0.60;;;25.20;37.50;;;;;;5005490;28;20026;-45
2022/01/03 10:00:39;;;;;;;1.45;0.77;;;25.20;37.50;;;;;;5005944;28;20026;-46
2022/01/03 10:03:05;;;;;;;4.28;1.20;;;25.20;37.40;;;;;;5005406;28;20026;-47
2022/01/03 10:05:31;;;;;;;2.30;0.98;;;25.20;37.40;;;;;;5005506;28;20033;-45
2022/01/03 10:07:57;;;;;;;2.90;1.00;;;25.20;37.40;;;;;;5005922;28;20109;-45
2022/01/03 10:10:24;;;;;;;2.95;1.10;;;25.20;37.40;;;;;;5005049;28;20155;-45
2022/01/03 10:12:50;;;;;;;2.15;0.88;;;25.20;37.40;;;;;;5005366;28;20121;-45
2022/01/03 10:15:15;;;;;;;2.00;0.65;;;25.20;37.50;;;;;;5004890;28;20129;-45
2022/01/03 10:17:42;;;;;;;3.15;1.00;;;25.20;37.50;;;;;;5004911;28;20658;-45
2022/01/03 10:20:12;;;;;;;2.10;0.80;;;25.20;37.50;;;;;;5005544;28;20026;-45
2022/01/03 10:22:38;;;;;;;1.88;0.90;;;25.20;37.40;;;;;;5004552;28;20034;-45
2022/01/03 10:25:16;;;;;;;1.85;0.75;;;25.20;37.40;;;;;;5005068;28;20426;-46
2022/01/03 10:27:51;;;;;;;2.47;0.93;;;25.20;37.30;;;;;;5005036;28;20029;-45
2022/01/03 10:30:42;;;;;;;2.55;0.73;;;25.20;37.40;;;;;;5005343;28;20033;-46
2022/01/03 10:33:12;;;;;;;1.48;0.50;;;25.20;37.40;;;;;;5003733;28;20034;-46
2022/01/03 10:35:46;;;;;;;2.72;0.80;;;25.20;37.40;;;;;;5004329;28;20265;-45
2022/01/03 10:38:36;;;;;;;1.73;0.70;;;25.20;37.40;;;;;;5004259;28;20057;-45
2022/01/03 10:41:21;;;;;;;2.90;0.90;;;25.20;37.40;;;;;;5003352;28;20037;-45
2022/01/03 10:43:50;;;;;;;3.60;1.00;;;25.20;37.60;;;;;;5003383;28;20101;-45
2022/01/03 10:46:21;;;;;;;2.42;0.90;;;25.20;37.60;;;;;;5004326;28;20026;-46
2022/01/03 10:48:47;;;;;;;1.73;0.80;;;25.20;37.50;;;;;;5003533;28;20194;-45
2022/01/03 10:51:22;;;;;;;3.83;1.15;;;25.20;37.60;;;;;;5012808;28;20037;-45
2022/01/03 10:53:50;;;;;;;2.10;0.90;;;25.20;37.50;;;;;;5003439;28;20053;-45
2022/01/03 10:56:35;;;;;;;1.67;0.80;;;25.10;37.50;;;;;;5004263;28;20029;-46
2022/01/03 10:59:18;;;;;;;2.22;0.50;;;25.20;37.60;;;;;;5004508;28;20033;-45
2022/01/03 11:01:47;;;;;;;2.70;0.70;;;25.10;37.60;;;;;;5004376;28;20117;-45
2022/01/03 11:04:42;;;;;;;1.60;0.80;;;25.10;37.60;;;;;;5003670;28;20113;-45
2022/01/03 11:13:21;;;;;;;2.15;0.70;;;25.10;37.60;;;;;;5020871;28;20401;-45
2022/01/03 11:15:51;;;;;;;1.35;0.57;;;25.00;37.60;;;;;;5022109;28;20025;-45
2022/01/03 11:18:18;;;;;;;4.40;0.80;;;25.10;37.60;;;;;;5022380;28;20060;-46
2022/01/03 11:21:09;;;;;;;2.53;0.70;;;25.10;37.60;;;;;;5023998;28;20033;-45
2022/01/03 11:23:36;;;;;;;1.98;0.70;;;25.00;37.60;;;;;;5020396;28;20050;-45
2022/01/03 11:26:06;;;;;;;2.97;0.80;;;25.00;37.60;;;;;;5010220;28;20030;-46
2022/01/03 11:28:33;;;;;;;0.95;0.50;;;25.00;37.60;;;;;;5003867;28;20033;-46
2022/01/03 11:30:59;;;;;;;1.45;0.60;;;25.00;37.70;;;;;;5002628;28;20026;-46
2022/01/03 11:33:26;;;;;;;1.50;0.63;;;25.00;37.70;;;;;;5003373;28;20034;-45
2022/01/03 11:35:52;;;;;;;2.60;0.63;;;25.00;37.70;;;;;;5003213;28;20030;-45
2022/01/03 11:38:20;;;;;;;2.33;0.80;;;25.00;37.70;;;;;;5003993;28;20758;-46
2022/01/03 11:40:47;;;;;;;1.75;0.73;;;25.00;37.70;;;;;;5004096;28;20087;-45
2022/01/03 11:43:13;;;;;;;1.77;0.82;;;25.00;37.70;;;;;;5004271;28;20033;-45
2022/01/03 11:45:39;;;;;;;1.23;0.55;;;25.00;38.40;;;;;;5003120;28;20054;-45
2022/01/03 11:48:08;;;;;;;1.10;0.57;;;25.00;37.80;;;;;;5003573;28;20030;-46
2022/01/03 11:50:36;;;;;;;2.60;0.73;;;25.00;37.80;;;;;;5023795;28;20025;-45
2022/01/03 11:53:09;;;;;;;1.85;0.85;;;24.90;37.80;;;;;;5042998;28;20029;-45
2022/01/03 11:55:36;;;;;;;2.35;0.70;;;24.90;37.80;;;;;;5021941;28;20390;-45
2022/01/03 12:03:52;;;;;;;1.52;0.52;;;24.90;37.90;;;;;;5023432;28;20021;-46
2022/01/03 12:06:11;;;;;;;3.25;0.80;;;25.00;37.90;;;;;;5017425;28;20398;-45
2022/01/03 12:08:39;;;;;;;1.25;0.55;;;24.90;37.90;;;;;;5003927;28;20030;-46
2022/01/03 12:11:23;;;;;;;1.50;0.63;;;24.90;37.90;;;;;;5004354;28;20073;-45
2022/01/03 12:13:48;;;;;;;1.73;0.75;;;24.90;37.90;;;;;;5003761;28;20105;-46
2022/01/03 12:16:15;;;;;;;3.00;0.70;;;24.90;37.80;;;;;;5003031;28;20100;-45
2022/01/03 12:19:01;;;;;;;2.05;0.68;;;24.90;37.70;;;;;;5004156;28;20026;-45
2022/01/03 12:22:06;;;;;;;1.20;0.40;;;24.90;37.80;;;;;;5004307;28;20026;-45
2022/01/03 12:24:47;;;;;;;1.98;0.70;;;24.90;37.80;;;;;;5000898;28;20084;-45
2022/01/03 12:27:12;;;;;;;1.85;0.60;;;24.90;37.80;;;;;;5003809;28;20038;-45
2022/01/03 12:29:56;;;;;;;1.35;0.40;;;24.90;37.70;;;;;;5003978;28;20364;-46
2022/01/03 12:32:23;;;;;;;0.85;0.45;;;25.00;37.80;;;;;;5004183;28;20486;-45
2022/01/03 12:35:10;;;;;;;1.63;0.50;;;24.90;37.70;;;;;;5003807;28;20478;-45
2022/01/03 12:37:47;;;;;;;1.33;0.43;;;25.00;37.70;;;;;;5003708;28;20057;-45
2022/01/03 12:40:18;;;;;;;7.43;1.05;;;25.00;37.70;;;;;;5003268;28;20034;-45
2022/01/03 12:42:52;;;;;;;2.10;0.60;;;25.00;38.00;;;;;;5006160;28;20255;-45
2022/01/03 12:45:30;;;;;;;2.47;0.60;;;25.00;38.00;;;;;;5006676;28;20136;-45
2022/01/03 12:48:20;;;;;;;3.08;0.50;;;25.00;38.40;;;;;;5019491;28;20033;-45
2022/01/03 12:51:05;;;;;;;3.03;0.95;;;25.00;38.40;;;;;;5034375;28;20064;-46
2022/01/03 12:53:30;;;;;;;2.85;0.75;;;25.00;38.30;;;;;;5025879;28;20095;-45
2022/01/03 12:56:02;;;;;;;2.15;0.50;;;25.00;38.30;;;;;;5013101;28;20038;-46
2022/01/03 12:58:27;;;;;;;1.58;0.60;;;25.00;38.30;;;;;;5005722;28;20026;-45
2022/01/03 13:01:05;;;;;;;3.08;0.77;;;25.00;38.20;;;;;;5006483;28;20025;-46
2022/01/03 13:03:37;;;;;;;2.85;0.80;;;25.00;38.20;;;;;;5006019;28;20032;-46
2022/01/03 13:06:14;;;;;;;1.23;0.50;;;25.00;38.20;;;;;;5006388;28;20029;-45
2022/01/03 13:08:52;;;;;;;1.70;0.40;;;25.00;38.20;;;;;;5006825;28;20061;-45
2022/01/03 13:11:28;;;;;;;2.13;0.60;;;25.00;38.20;;;;;;5006719;28;20038;-45
2022/01/03 13:14:05;;;;;;;2.13;0.60;;;25.00;38.20;;;;;;5004738;28;20293;-52
2022/01/03 13:16:31;;;;;;;2.85;0.40;;;25.00;38.20;;;;;;5006696;28;20109;-45
2022/01/03 13:18:58;;;;;;;1.85;0.60;;;25.00;38.20;;;;;;5005315;28;20117;-45